Litchfield, California
Current Conditions -  °F | °C
As of 5:55 AM on Monday 20 Oct 2014 (Local Time) from KRTS Reporting Station
Clear Clear  
Wind Chill: 40°   Ceiling: Unl
Heat Index: 45°   Visibility: 10mi
Dew Point: 28°   Wind: 8mph
Humidity: 53%   Direction: 100°E
Pressure: 29.96"   Gusts: NA
Location:  40.38°N, 120.39°W
Report Text: KRTS 201255Z AUTO 10007KT 10SM CLR 07/M02 A2996 RMK AO2
Loading
Personal Weather Stations






























Interactive Weather Map
Tropical Storm Tracking
New forecast layout! Learn more

10-Day Weather Forecast

Advertisements
Track Severe Weather on mobile